Time;durP1;ratioP1;P1;durP2;ratioP2;P2;SDS_P1;SDS_P2;PMS_P1;PMS_P2;Temp;Humidity;BMP_temperature;BMP_pressure;BME280_temperature;BME280_humidity;BME280_pressure;Samples;Min_cycle;Max_cycle;Signal;HPM_P1;HPM_P2
2023/01/27 00:00:52;;;;;;;0.60;0.60;;;2.20;99.90;;;;;;5110927;28;20048;-76
2023/01/27 00:03:19;;;;;;;0.70;0.70;;;2.20;99.90;;;;;;5109584;28;20097;-76
2023/01/27 00:05:48;;;;;;;3.42;0.90;;;2.20;99.90;;;;;;5110996;28;20043;-76
2023/01/27 00:08:15;;;;;;;1.15;0.85;;;2.10;99.90;;;;;;5109757;28;20050;-76
2023/01/27 00:10:45;;;;;;;0.60;0.60;;;2.10;99.90;;;;;;5102617;28;20507;-77
2023/01/27 00:13:28;;;;;;;1.23;0.93;;;2.10;99.90;;;;;;5077703;28;20055;-76
2023/01/27 00:15:55;;;;;;;;;;;2.00;99.90;;;;;;5070868;28;20059;-77
2023/01/27 00:18:24;;;;;;;1.25;0.63;;;2.00;99.90;;;;;;5069147;28;19924;-77
2023/01/27 00:26:24;;;;;;;1.35;0.50;;;2.00;99.90;;;;;;5113790;28;20155;-76
2023/01/27 00:28:52;;;;;;;2.42;0.80;;;2.00;99.90;;;;;;5101115;28;20048;-76
2023/01/27 00:34:08;;;;;;;2.00;0.68;;;2.00;99.90;;;;;;5093307;28;20056;-76
2023/01/27 00:36:37;;;;;;;0.93;0.70;;;2.00;99.90;;;;;;5094245;28;20134;-76
2023/01/27 00:39:05;;;;;;;2.38;0.55;;;2.00;99.90;;;;;;5094164;28;20554;-77
2023/01/27 00:41:35;;;;;;;1.35;0.60;;;2.00;99.90;;;;;;5087403;28;20079;-76
2023/01/27 00:44:04;;;;;;;0.98;0.70;;;2.00;99.90;;;;;;5078455;28;20047;-75
2023/01/27 00:46:32;;;;;;;1.23;0.70;;;1.90;99.90;;;;;;5091777;28;20113;-75
2023/01/27 00:49:01;;;;;;;0.73;0.60;;;1.90;99.90;;;;;;5088231;28;20118;-75
2023/01/27 00:51:29;;;;;;;2.30;0.80;;;1.90;99.90;;;;;;5055946;28;20048;-75
2023/01/27 00:53:58;;;;;;;0.68;0.60;;;1.80;99.90;;;;;;5077727;28;20040;-75
2023/01/27 00:56:25;;;;;;;1.50;0.73;;;1.80;99.90;;;;;;5072448;28;20106;-77
2023/01/27 00:58:54;;;;;;;0.90;0.80;;;1.80;99.90;;;;;;5101835;28;20424;-76
2023/01/27 01:01:22;;;;;;;3.70;0.70;;;1.80;99.90;;;;;;5114846;28;20384;-76
2023/01/27 01:03:49;;;;;;;0.70;0.70;;;1.80;99.90;;;;;;5071842;28;20151;-75
2023/01/27 01:06:19;;;;;;;3.20;0.88;;;1.80;99.90;;;;;;5074842;28;20125;-75
2023/01/27 01:08:50;;;;;;;1.58;1.05;;;1.70;99.90;;;;;;5103683;28;20508;-76
2023/01/27 01:11:20;;;;;;;6.30;0.90;;;1.70;99.90;;;;;;5093037;28;20044;-75
2023/01/27 01:13:48;;;;;;;1.90;0.73;;;1.60;99.90;;;;;;5092324;28;20130;-75
2023/01/27 01:16:22;;;;;;;3.22;0.80;;;1.50;99.90;;;;;;5117770;27;20047;-75
2023/01/27 01:18:50;;;;;;;0.90;0.80;;;1.50;99.90;;;;;;5110130;28;20105;-75
2023/01/27 01:21:18;;;;;;;1.40;1.25;;;1.60;99.90;;;;;;5093798;28;20150;-75
2023/01/27 01:23:46;;;;;;;0.90;0.90;;;1.50;99.90;;;;;;5093110;28;20056;-75
2023/01/27 01:26:16;;;;;;;2.30;0.73;;;1.50;99.90;;;;;;5108364;28;20147;-75
2023/01/27 01:28:45;;;;;;;0.70;0.70;;;1.50;99.90;;;;;;5112471;28;20060;-75
2023/01/27 01:31:16;;;;;;;0.93;0.90;;;1.50;99.90;;;;;;5113875;28;20108;-75
2023/01/27 01:33:45;;;;;;;1.75;0.85;;;1.40;99.90;;;;;;5092034;28;20458;-75
2023/01/27 01:36:16;;;;;;;2.35;1.08;;;1.40;99.90;;;;;;5105009;28;20052;-75
2023/01/27 01:38:45;;;;;;;1.30;1.15;;;1.40;99.90;;;;;;5092933;28;20040;-75
2023/01/27 01:41:18;;;;;;;1.08;0.95;;;1.30;99.90;;;;;;5112991;28;20059;-75
2023/01/27 01:43:50;;;;;;;1.23;0.95;;;1.30;99.90;;;;;;5111451;28;20054;-74
2023/01/27 01:46:20;;;;;;;2.78;1.35;;;1.30;99.90;;;;;;5113751;28;20510;-76
2023/01/27 01:48:54;;;;;;;1.98;0.98;;;1.20;99.90;;;;;;5113050;28;20138;-76
2023/01/27 01:51:27;;;;;;;1.15;0.90;;;1.30;99.90;;;;;;5093323;28;20054;-75
2023/01/27 01:54:01;;;;;;;1.23;0.77;;;1.30;99.90;;;;;;5097989;28;20512;-75
2023/01/27 01:56:36;;;;;;;2.25;0.90;;;1.30;99.90;;;;;;5054795;28;20056;-76
2023/01/27 01:59:08;;;;;;;1.55;0.93;;;1.30;99.90;;;;;;5054586;28;20060;-75
2023/01/27 02:01:37;;;;;;;1.15;1.00;;;1.40;99.90;;;;;;5091306;28;20134;-76
2023/01/27 02:04:09;;;;;;;2.33;1.20;;;1.40;99.90;;;;;;5113140;27;20043;-76
2023/01/27 02:06:44;;;;;;;2.47;1.02;;;1.40;99.90;;;;;;5111756;28;20056;-76
2023/01/27 02:09:12;;;;;;;2.65;1.33;;;1.50;99.90;;;;;;5111515;28;20047;-76
2023/01/27 02:11:39;;;;;;;1.17;1.08;;;1.50;99.90;;;;;;5084579;28;20109;-77
2023/01/27 02:14:12;;;;;;;2.00;1.45;;;1.40;99.90;;;;;;5075945;28;20319;-76
2023/01/27 02:16:41;;;;;;;4.38;1.83;;;1.30;99.90;;;;;;5070496;28;20053;-76
2023/01/27 02:19:17;;;;;;;2.20;1.73;;;1.20;99.90;;;;;;5087260;28;20043;-75
2023/01/27 02:21:46;;;;;;;1.52;1.42;;;1.10;99.90;;;;;;5071901;28;20048;-75
2023/01/27 02:24:13;;;;;;;4.90;1.88;;;1.20;99.90;;;;;;5070091;28;20072;-76
2023/01/27 02:26:44;;;;;;;2.13;1.83;;;1.20;99.90;;;;;;5072894;28;20047;-76
2023/01/27 02:29:15;;;;;;;3.22;2.00;;;1.30;99.90;;;;;;5103088;28;20052;-76
2023/01/27 02:31:43;;;;;;;3.28;1.80;;;1.30;99.90;;;;;;5111116;28;20044;-75
2023/01/27 02:34:16;;;;;;;2.50;1.55;;;1.40;99.90;;;;;;5110968;28;20040;-75
2023/01/27 02:36:49;;;;;;;6.90;2.15;;;1.40;99.90;;;;;;5109102;28;20048;-76
2023/01/27 02:39:21;;;;;;;1.67;1.58;;;1.40;99.90;;;;;;5112075;28;20117;-76
2023/01/27 02:41:53;;;;;;;2.28;1.67;;;1.40;99.90;;;;;;5087353;28;20098;-77
2023/01/27 02:44:21;;;;;;;3.33;1.50;;;1.50;99.90;;;;;;5078198;28;20052;-76
2023/01/27 02:46:49;;;;;;;1.65;1.55;;;1.50;99.90;;;;;;5098918;28;20051;-77
2023/01/27 02:49:17;;;;;;;1.70;1.60;;;1.50;99.90;;;;;;5093755;28;20515;-77
2023/01/27 02:51:45;;;;;;;1.60;1.50;;;1.40;99.90;;;;;;5093643;28;20047;-76
2023/01/27 02:54:13;;;;;;;3.25;1.92;;;1.40;99.90;;;;;;5110339;28;20051;-76
2023/01/27 02:56:42;;;;;;;3.78;1.83;;;1.30;99.90;;;;;;5108775;28;20047;-76
2023/01/27 02:59:12;;;;;;;5.10;2.35;;;1.30;99.90;;;;;;5110514;28;20078;-75
2023/01/27 03:01:42;;;;;;;2.30;2.03;;;1.30;99.90;;;;;;5100592;28;20056;-75
2023/01/27 03:04:14;;;;;;;2.03;1.40;;;1.20;99.90;;;;;;5088792;28;20145;-75
2023/01/27 03:06:42;;;;;;;2.92;1.60;;;1.20;99.90;;;;;;5073213;28;20051;-74
2023/01/27 03:09:09;;;;;;;1.50;1.40;;;1.20;99.90;;;;;;5091166;28;20051;-76
2023/01/27 03:14:31;;;;;;;;;;;;;;;;;;;;;
2023/01/27 03:19:52;;;;;;;1.73;1.38;;;1.20;99.90;;;;;;5091396;28;20140;-75
2023/01/27 03:22:20;;;;;;;5.68;1.80;;;1.10;99.90;;;;;;5085236;28;20048;-75
2023/01/27 03:24:47;;;;;;;2.20;2.00;;;1.10;99.90;;;;;;5069329;28;20101;-75
2023/01/27 03:27:15;;;;;;;1.98;1.73;;;1.10;99.90;;;;;;5068847;28;20513;-76
2023/01/27 03:30:06;;;;;;;3.88;1.98;;;1.10;99.90;;;;;;5070264;28;20048;-75
2023/01/27 03:32:35;;;;;;;5.80;1.90;;;1.10;99.90;;;;;;5097179;28;20063;-75
2023/01/27 03:35:38;;;;;;;2.17;1.80;;;1.10;99.90;;;;;;5101397;28;20051;-75
2023/01/27 03:46:27;;;;;;;3.58;2.78;;;1.00;99.90;;;;;;5069523;28;20056;-76
2023/01/27 03:48:56;;;;;;;3.65;2.63;;;1.10;99.90;;;;;;5070973;28;20143;-76
2023/01/27 03:51:26;;;;;;;4.22;2.85;;;1.00;99.90;;;;;;5108516;28;20047;-75
2023/01/27 03:53:54;;;;;;;4.10;2.90;;;1.00;99.90;;;;;;5090858;28;20048;-78
2023/01/27 03:56:22;;;;;;;4.75;2.72;;;1.00;99.90;;;;;;5090691;28;20122;-77
2023/01/27 03:58:51;;;;;;;3.35;2.90;;;0.90;99.90;;;;;;5098615;28;20051;-77
2023/01/27 04:01:21;;;;;;;4.22;3.40;;;0.90;99.90;;;;;;5115529;28;20044;-77
2023/01/27 04:06:59;;;;;;;5.53;3.20;;;0.80;99.90;;;;;;5099150;28;20544;-70
2023/01/27 04:09:30;;;;;;;3.90;3.50;;;0.80;99.90;;;;;;5096981;28;20150;-76
2023/01/27 04:11:59;;;;;;;3.42;3.13;;;0.80;99.90;;;;;;5075586;28;20566;-71
2023/01/27 04:14:29;;;;;;;4.38;3.72;;;0.90;99.90;;;;;;5091796;28;20500;-70
2023/01/27 04:17:03;;;;;;;3.50;3.20;;;0.90;99.90;;;;;;5092164;28;20056;-71
2023/01/27 04:19:32;;;;;;;5.85;3.33;;;0.90;99.90;;;;;;5092643;28;20048;-71
2023/01/27 04:22:01;;;;;;;2.80;2.60;;;1.00;99.90;;;;;;5083185;28;20519;-78
2023/01/27 04:24:33;;;;;;;3.50;3.20;;;1.00;99.90;;;;;;5094657;28;20055;-72
2023/01/27 04:27:03;;;;;;;4.10;3.70;;;0.90;99.90;;;;;;5095129;28;20055;-71
2023/01/27 04:29:36;;;;;;;3.90;3.40;;;0.90;99.90;;;;;;5114600;28;20326;-72
2023/01/27 04:32:06;;;;;;;3.95;3.55;;;1.00;99.90;;;;;;5099863;28;20428;-71
2023/01/27 04:34:43;;;;;;;5.80;3.33;;;1.00;99.90;;;;;;5091718;28;20052;-72
2023/01/27 04:37:11;;;;;;;4.57;3.72;;;1.00;99.90;;;;;;5088728;28;20543;-71
2023/01/27 04:39:44;;;;;;;4.47;3.70;;;1.00;99.90;;;;;;5080726;28;20515;-79
2023/01/27 04:42:12;;;;;;;4.35;3.45;;;1.00;99.90;;;;;;5115009;28;20047;-72
2023/01/27 04:44:42;;;;;;;3.55;3.25;;;1.00;99.90;;;;;;5093800;28;20508;-71
2023/01/27 04:47:15;;;;;;;3.90;3.60;;;1.00;99.90;;;;;;5086975;28;20048;-73
2023/01/27 04:49:44;;;;;;;4.60;3.30;;;1.00;99.90;;;;;;5082573;28;20450;-73
2023/01/27 04:52:13;;;;;;;4.60;3.40;;;1.00;99.90;;;;;;5083869;28;20044;-72
2023/01/27 04:54:41;;;;;;;4.32;3.47;;;1.00;99.90;;;;;;5083331;28;20063;-71
2023/01/27 04:57:09;;;;;;;3.92;3.58;;;1.00;99.90;;;;;;5084238;28;20052;-72
2023/01/27 04:59:37;;;;;;;3.10;2.90;;;1.00;99.90;;;;;;5085696;28;20054;-72
2023/01/27 05:02:09;;;;;;;3.28;3.08;;;1.00;99.90;;;;;;5097135;28;20058;-72
2023/01/27 05:04:37;;;;;;;3.35;3.15;;;1.00;99.90;;;;;;5113975;28;20044;-71
2023/01/27 05:07:06;;;;;;;3.78;3.15;;;1.00;99.90;;;;;;5099665;28;20037;-73
2023/01/27 05:09:34;;;;;;;4.20;3.35;;;1.00;99.90;;;;;;5081911;28;20139;-70
2023/01/27 05:12:03;;;;;;;4.43;3.78;;;1.10;99.90;;;;;;5086470;28;20052;-70
2023/01/27 05:14:31;;;;;;;4.63;3.40;;;1.10;99.90;;;;;;5089739;28;20056;-75
2023/01/27 05:16:58;;;;;;;3.78;3.40;;;1.10;99.90;;;;;;5084139;28;20484;-72
2023/01/27 05:19:27;;;;;;;4.82;4.40;;;1.00;99.90;;;;;;5084416;28;20409;-74
2023/01/27 05:21:55;;;;;;;3.90;3.60;;;1.00;99.90;;;;;;5086008;28;20083;-74
2023/01/27 05:24:27;;;;;;;5.20;3.42;;;1.00;99.90;;;;;;5083602;28;20463;-75
2023/01/27 05:26:56;;;;;;;5.10;3.38;;;1.00;99.90;;;;;;5086300;28;20044;-74
2023/01/27 05:29:24;;;;;;;5.85;3.92;;;1.00;99.90;;;;;;5084169;28;20067;-75
2023/01/27 05:31:55;;;;;;;4.47;4.00;;;1.00;99.90;;;;;;5087811;28;20381;-74
2023/01/27 05:34:27;;;;;;;9.30;4.15;;;0.90;99.90;;;;;;5087985;28;20470;-72
2023/01/27 05:36:55;;;;;;;5.65;3.88;;;0.90;99.90;;;;;;5086945;28;20558;-72
2023/01/27 05:39:25;;;;;;;5.10;3.60;;;0.90;99.90;;;;;;5083626;28;20047;-70
2023/01/27 05:41:54;;;;;;;5.72;4.20;;;0.90;99.90;;;;;;5085171;28;20105;-72
2023/01/27 05:44:25;;;;;;;7.28;3.42;;;0.90;99.90;;;;;;5085188;28;20044;-71
2023/01/27 05:46:55;;;;;;;5.75;3.25;;;0.90;99.90;;;;;;5089904;28;20091;-73
2023/01/27 05:49:23;;;;;;;7.75;3.53;;;0.90;99.90;;;;;;5078511;28;20052;-73
2023/01/27 05:51:51;;;;;;;7.07;4.07;;;0.90;99.90;;;;;;5089680;28;20121;-70
2023/01/27 05:54:19;;;;;;;9.13;3.47;;;0.90;99.90;;;;;;5091001;28;20077;-76
2023/01/27 05:56:48;;;;;;;6.95;4.10;;;0.90;99.90;;;;;;5085943;28;20522;-72
2023/01/27 05:59:16;;;;;;;11.80;4.30;;;0.90;99.90;;;;;;5081884;28;20419;-73
2023/01/27 06:01:46;;;;;;;6.57;3.83;;;0.90;99.90;;;;;;5082860;28;20544;-72
2023/01/27 06:04:14;;;;;;;4.90;4.00;;;0.90;99.90;;;;;;5087123;28;20068;-72
2023/01/27 06:06:42;;;;;;;5.95;4.35;;;0.90;99.90;;;;;;5087990;28;20059;-73
2023/01/27 06:09:13;;;;;;;5.22;4.20;;;0.80;99.90;;;;;;5083953;28;20100;-73
2023/01/27 06:11:40;;;;;;;5.20;4.50;;;0.80;99.90;;;;;;5088472;28;20055;-72
2023/01/27 06:14:09;;;;;;;4.70;4.25;;;0.80;99.90;;;;;;5087921;28;20546;-72
2023/01/27 06:16:37;;;;;;;5.80;3.90;;;0.80;99.90;;;;;;5088597;28;20432;-72
2023/01/27 06:19:30;;;;;;;5.55;4.00;;;0.80;99.90;;;;;;5086241;28;20045;-73
2023/01/27 06:21:58;;;;;;;4.65;4.18;;;0.80;99.90;;;;;;5086413;28;20048;-72
2023/01/27 06:24:26;;;;;;;5.75;4.53;;;0.70;99.90;;;;;;5088176;28;20040;-74
2023/01/27 06:26:56;;;;;;;8.10;4.70;;;0.60;99.90;;;;;;5088894;28;20138;-72
2023/01/27 06:29:25;;;;;;;7.70;5.47;;;0.60;99.90;;;;;;5084748;28;20036;-74
2023/01/27 06:31:53;;;;;;;5.55;4.50;;;0.60;99.90;;;;;;5087257;28;20434;-72
2023/01/27 06:34:21;;;;;;;6.10;4.60;;;0.60;99.90;;;;;;5090333;28;20039;-72
2023/01/27 06:36:48;;;;;;;7.93;4.35;;;0.60;99.90;;;;;;5085788;28;20509;-71
2023/01/27 06:39:16;;;;;;;6.80;4.20;;;0.60;99.90;;;;;;5088005;28;20645;-72
2023/01/27 06:41:44;;;;;;;4.35;3.95;;;0.60;99.90;;;;;;5089001;28;20445;-72
2023/01/27 06:44:12;;;;;;;5.35;4.85;;;0.60;99.90;;;;;;5090277;28;20043;-71
2023/01/27 06:46:42;;;;;;;7.55;4.60;;;0.60;99.90;;;;;;5086425;28;20492;-72
2023/01/27 06:49:10;;;;;;;6.78;5.03;;;0.70;99.90;;;;;;5089197;28;20052;-71
2023/01/27 06:51:37;;;;;;;7.93;4.45;;;0.70;99.90;;;;;;5090204;28;20072;-71
2023/01/27 06:54:05;;;;;;;6.85;4.55;;;0.60;99.90;;;;;;5088021;28;20051;-72
2023/01/27 06:56:33;;;;;;;5.70;4.47;;;0.60;99.90;;;;;;5088798;28;20762;-73
2023/01/27 06:59:00;;;;;;;4.50;4.20;;;0.60;99.90;;;;;;5089262;28;20117;-73
2023/01/27 07:01:28;;;;;;;5.82;4.25;;;0.70;99.90;;;;;;5089936;28;20070;-72
2023/01/27 07:03:57;;;;;;;11.43;4.93;;;0.70;99.90;;;;;;5086492;28;20052;-71
2023/01/27 07:06:25;;;;;;;6.20;4.22;;;0.70;99.90;;;;;;5090470;28;20048;-73
2023/01/27 07:08:52;;;;;;;5.70;4.45;;;0.80;99.90;;;;;;5079785;28;20044;-72
2023/01/27 07:11:21;;;;;;;6.50;4.70;;;0.80;99.90;;;;;;5085382;28;20040;-72
2023/01/27 07:13:49;;;;;;;8.50;4.97;;;0.70;99.90;;;;;;5090071;28;20055;-72
2023/01/27 07:16:16;;;;;;;8.32;5.90;;;0.70;99.90;;;;;;5089182;28;20110;-73
2023/01/27 07:18:44;;;;;;;6.95;5.15;;;0.80;99.90;;;;;;5090404;28;20428;-71
2023/01/27 07:21:13;;;;;;;5.38;4.88;;;0.80;99.90;;;;;;5088328;28;21014;-71
2023/01/27 07:23:40;;;;;;;6.05;4.90;;;0.70;99.90;;;;;;5087802;28;20055;-72
2023/01/27 07:26:09;;;;;;;8.98;5.57;;;0.70;99.90;;;;;;5090076;28;20040;-72
2023/01/27 07:28:36;;;;;;;8.13;5.72;;;0.70;99.90;;;;;;5090066;28;20066;-73
2023/01/27 07:31:06;;;;;;;6.40;5.03;;;0.70;99.90;;;;;;5089540;28;20075;-71
2023/01/27 07:33:34;;;;;;;12.10;5.22;;;0.80;99.90;;;;;;5089841;28;20088;-73
2023/01/27 07:36:01;;;;;;;6.22;5.28;;;0.80;99.90;;;;;;5089097;28;20048;-72
2023/01/27 07:38:31;;;;;;;5.95;5.15;;;0.80;99.90;;;;;;5089271;28;20618;-73
2023/01/27 07:40:58;;;;;;;4.88;4.45;;;0.80;99.90;;;;;;5078569;28;20547;-73
2023/01/27 07:43:26;;;;;;;15.68;6.32;;;0.80;99.90;;;;;;5088870;28;20051;-72
2023/01/27 07:45:56;;;;;;;8.95;5.25;;;0.90;99.90;;;;;;5088730;28;20055;-73
2023/01/27 07:48:24;;;;;;;6.90;4.15;;;0.90;99.90;;;;;;5089615;28;20056;-72
2023/01/27 07:50:52;;;;;;;5.75;4.25;;;0.90;99.90;;;;;;5079359;28;20045;-73
2023/01/27 07:53:19;;;;;;;4.93;4.15;;;0.90;99.90;;;;;;5079851;28;20067;-72
2023/01/27 07:55:48;;;;;;;7.82;3.80;;;0.80;99.90;;;;;;5076528;28;20048;-70
2023/01/27 07:58:16;;;;;;;7.15;3.60;;;0.90;99.90;;;;;;5069291;28;20107;-71
2023/01/27 08:00:44;;;;;;;21.02;9.05;;;0.90;99.90;;;;;;5091158;28;20043;-71
2023/01/27 08:03:23;;;;;;;5.70;3.80;;;0.90;99.90;;;;;;5109827;28;20082;-72
2023/01/27 08:05:51;;;;;;;4.95;3.97;;;0.90;99.90;;;;;;5109186;28;20052;-71
2023/01/27 08:08:19;;;;;;;10.13;4.28;;;0.90;99.90;;;;;;5105999;28;20072;-71
2023/01/27 08:10:50;;;;;;;10.45;4.47;;;0.90;99.90;;;;;;5107764;28;20059;-70
2023/01/27 08:13:18;;;;;;;7.90;4.18;;;0.90;99.90;;;;;;5108879;28;20051;-71
2023/01/27 08:15:45;;;;;;;6.88;4.80;;;1.00;99.90;;;;;;5107199;28;20135;-73
2023/01/27 08:18:13;;;;;;;8.73;4.57;;;0.90;99.90;;;;;;5079110;28;20507;-72
2023/01/27 08:20:41;;;;;;;5.05;4.35;;;0.90;99.90;;;;;;5108038;28;20048;-73
2023/01/27 08:23:08;;;;;;;4.47;3.80;;;0.90;99.90;;;;;;5090773;28;20146;-72
2023/01/27 08:25:36;;;;;;;6.85;4.30;;;0.90;99.90;;;;;;5111122;28;20048;-72
2023/01/27 08:28:05;;;;;;;6.65;4.35;;;0.90;99.90;;;;;;5102290;28;20504;-73
2023/01/27 08:30:33;;;;;;;5.47;3.75;;;0.90;99.90;;;;;;5109352;28;20047;-73
2023/01/27 08:33:01;;;;;;;5.07;3.47;;;0.90;99.90;;;;;;5110438;28;20048;-74
2023/01/27 08:35:28;;;;;;;4.13;3.55;;;0.90;99.90;;;;;;5110177;28;20047;-71
2023/01/27 08:37:56;;;;;;;5.72;4.07;;;0.80;99.90;;;;;;5101151;28;20052;-74
2023/01/27 08:40:23;;;;;;;6.10;3.75;;;0.80;99.90;;;;;;5110540;28;20048;-72
2023/01/27 08:42:51;;;;;;;6.95;3.35;;;0.70;99.90;;;;;;5104643;28;20044;-71
2023/01/27 08:45:20;;;;;;;8.25;3.35;;;0.60;99.90;;;;;;5091586;28;20055;-72
2023/01/27 08:47:48;;;;;;;7.85;3.95;;;0.60;99.90;;;;;;5071887;28;20044;-71
2023/01/27 08:50:16;;;;;;;5.68;3.88;;;0.60;99.90;;;;;;5092798;28;20496;-71
2023/01/27 08:52:43;;;;;;;6.95;3.90;;;0.60;99.90;;;;;;5094215;28;20068;-73
2023/01/27 08:55:11;;;;;;;10.70;4.40;;;0.60;99.90;;;;;;5093244;28;20031;-71
2023/01/27 08:57:38;;;;;;;6.10;4.75;;;0.60;99.90;;;;;;5085948;28;20143;-71
2023/01/27 09:00:11;;;;;;;4.72;4.25;;;0.70;99.90;;;;;;5077531;28;20097;-70
2023/01/27 09:02:40;;;;;;;9.40;4.03;;;0.70;99.90;;;;;;5090411;28;20048;-73
2023/01/27 09:05:08;;;;;;;6.00;4.30;;;0.70;99.90;;;;;;5078308;28;20091;-72
2023/01/27 09:07:36;;;;;;;4.88;3.95;;;0.70;99.90;;;;;;5077697;28;20063;-72
2023/01/27 09:10:05;;;;;;;4.05;3.75;;;0.70;99.90;;;;;;5082553;28;20048;-73
2023/01/27 09:12:33;;;;;;;6.30;4.00;;;0.80;99.90;;;;;;5073192;28;20409;-74
2023/01/27 09:15:00;;;;;;;6.28;4.03;;;0.80;99.90;;;;;;5099724;28;20455;-73
2023/01/27 09:17:28;;;;;;;3.85;3.40;;;0.80;99.90;;;;;;5088394;28;20054;-72
2023/01/27 09:19:57;;;;;;;6.53;3.42;;;0.70;99.90;;;;;;5074309;28;20135;-73
2023/01/27 09:22:25;;;;;;;19.98;9.73;;;0.70;99.90;;;;;;5080100;28;20075;-72
2023/01/27 09:24:52;;;;;;;6.20;3.85;;;0.70;99.90;;;;;;5113602;28;20047;-70
2023/01/27 09:27:20;;;;;;;4.22;3.83;;;0.70;99.90;;;;;;5112064;28;20055;-78
2023/01/27 09:29:47;;;;;;;4.88;3.33;;;0.70;99.90;;;;;;5112343;28;20078;-77
2023/01/27 09:32:15;;;;;;;3.78;2.92;;;0.70;99.90;;;;;;5098845;28;20039;-77
2023/01/27 09:34:43;;;;;;;6.97;3.33;;;0.80;99.90;;;;;;5113714;28;20531;-72
2023/01/27 09:37:13;;;;;;;4.22;3.53;;;0.80;99.90;;;;;;5112246;28;20047;-72
2023/01/27 09:39:45;;;;;;;6.57;3.10;;;0.80;99.90;;;;;;5064201;28;20056;-72
2023/01/27 09:42:36;;;;;;;6.03;3.42;;;0.80;99.90;;;;;;5083556;28;20617;-73
2023/01/27 09:45:29;;;;;;;5.03;3.42;;;0.70;99.90;;;;;;5083479;28;20142;-74
2023/01/27 09:48:17;;;;;;;6.07;3.50;;;0.70;99.90;;;;;;5073032;28;20098;-73
2023/01/27 09:50:46;;;;;;;7.53;3.95;;;0.80;99.90;;;;;;5076109;28;20078;-74
2023/01/27 09:53:44;;;;;;;5.43;3.20;;;0.80;99.90;;;;;;5084275;28;20043;-74
2023/01/27 09:56:22;;;;;;;5.82;3.53;;;0.80;99.90;;;;;;5075445;28;20052;-74
2023/01/27 09:59:14;;;;;;;4.30;3.42;;;0.80;99.90;;;;;;5088786;28;20076;-74
2023/01/27 10:01:57;;;;;;;5.43;4.30;;;0.70;99.90;;;;;;5087800;28;20048;-73
2023/01/27 10:04:46;;;;;;;5.78;3.60;;;0.80;99.90;;;;;;5091353;28;20044;-73
2023/01/27 10:07:51;;;;;;;6.90;3.58;;;0.80;99.90;;;;;;5098014;28;20397;-74
2023/01/27 10:10:39;;;;;;;3.55;3.13;;;0.80;99.90;;;;;;5093157;28;20076;-74
2023/01/27 10:13:23;;;;;;;4.40;3.53;;;0.80;99.90;;;;;;5090707;28;20045;-72
2023/01/27 10:16:12;;;;;;;6.15;3.55;;;0.80;99.90;;;;;;5090581;28;20047;-74
2023/01/27 10:19:01;;;;;;;3.95;3.42;;;0.80;99.90;;;;;;5089289;28;20134;-72
2023/01/27 10:21:43;;;;;;;5.72;3.97;;;0.70;99.90;;;;;;5095607;28;20515;-74
2023/01/27 10:24:21;;;;;;;5.72;3.25;;;0.70;99.90;;;;;;5090199;28;20083;-74
2023/01/27 10:26:51;;;;;;;5.55;3.67;;;0.70;99.90;;;;;;5086533;28;20085;-73
2023/01/27 10:29:25;;;;;;;6.03;3.85;;;0.70;99.90;;;;;;5086961;28;20051;-74
2023/01/27 10:31:57;;;;;;;4.03;3.58;;;0.60;99.90;;;;;;5087727;28;20130;-74
2023/01/27 10:34:30;;;;;;;5.68;4.10;;;0.60;99.90;;;;;;5090730;28;20047;-73
2023/01/27 10:37:13;;;;;;;5.35;3.92;;;0.60;99.90;;;;;;5091097;28;20085;-74
2023/01/27 10:39:50;;;;;;;5.03;3.97;;;0.50;99.90;;;;;;5093358;28;20079;-75
2023/01/27 10:42:30;;;;;;;4.00;3.50;;;0.50;99.90;;;;;;5087688;28;20133;-74
2023/01/27 10:45:24;;;;;;;3.50;3.20;;;0.50;99.90;;;;;;5088098;28;20141;-72
2023/01/27 10:48:21;;;;;;;4.10;3.50;;;0.50;99.90;;;;;;5096191;28;20047;-73
2023/01/27 10:50:55;;;;;;;2.50;2.30;;;0.60;99.90;;;;;;5091078;28;20101;-73
2023/01/27 10:53:33;;;;;;;4.97;2.67;;;0.70;99.90;;;;;;5094367;28;20043;-71
2023/01/27 10:56:07;;;;;;;4.90;2.95;;;0.60;99.90;;;;;;5091159;28;20522;-72
2023/01/27 10:58:51;;;;;;;3.38;3.05;;;0.60;99.90;;;;;;5081051;28;20036;-74
2023/01/27 11:01:25;;;;;;;4.72;2.88;;;0.70;99.90;;;;;;5084262;28;20151;-74
2023/01/27 11:03:58;;;;;;;5.00;3.08;;;0.60;99.90;;;;;;5096102;28;20425;-74
2023/01/27 11:06:32;;;;;;;3.33;2.75;;;0.60;99.90;;;;;;5098364;28;20460;-73
2023/01/27 11:09:14;;;;;;;5.45;3.00;;;0.60;99.90;;;;;;5096403;28;20058;-75
2023/01/27 11:11:48;;;;;;;5.15;3.08;;;0.50;99.90;;;;;;5091733;28;20551;-73
2023/01/27 11:14:25;;;;;;;7.35;3.88;;;0.50;99.90;;;;;;5096241;28;20559;-74
2023/01/27 11:16:56;;;;;;;6.80;3.28;;;0.50;99.90;;;;;;5091291;28;20389;-72
2023/01/27 11:19:38;;;;;;;3.60;3.08;;;0.50;99.90;;;;;;5102486;28;20116;-72
2023/01/27 11:22:19;;;;;;;3.50;3.13;;;0.50;99.90;;;;;;5077864;28;20536;-74
2023/01/27 11:24:53;;;;;;;3.70;3.40;;;0.40;99.90;;;;;;5071140;28;20178;-72
2023/01/27 11:27:42;;;;;;;3.42;3.13;;;0.40;99.90;;;;;;5076605;28;20143;-74
2023/01/27 11:30:17;;;;;;;3.42;3.17;;;0.30;99.90;;;;;;5070633;28;20044;-75
2023/01/27 11:32:58;;;;;;;3.85;3.10;;;0.30;99.90;;;;;;5069992;28;20536;-71
2023/01/27 11:35:26;;;;;;;5.53;3.45;;;0.30;99.90;;;;;;5067447;28;20543;-71
2023/01/27 11:37:54;;;;;;;5.88;3.38;;;0.20;99.90;;;;;;5092521;28;20039;-73
2023/01/27 11:40:27;;;;;;;7.30;3.85;;;0.30;99.90;;;;;;5110046;28;20084;-74
2023/01/27 11:42:56;;;;;;;;;;;0.30;99.90;;;;;;5104492;28;20479;-73
2023/01/27 11:45:26;;;;;;;6.75;3.78;;;0.40;99.90;;;;;;5089471;28;20438;-74
2023/01/27 11:47:58;;;;;;;6.25;3.35;;;0.30;99.90;;;;;;5109140;28;20104;-73
2023/01/27 11:50:30;;;;;;;3.92;2.85;;;0.30;99.90;;;;;;5109470;28;20054;-74
2023/01/27 11:53:12;;;;;;;4.95;3.42;;;0.30;99.90;;;;;;5089744;28;20055;-72
2023/01/27 11:55:43;;;;;;;4.30;3.33;;;0.30;99.90;;;;;;5105823;28;20047;-74
2023/01/27 11:58:24;;;;;;;4.40;3.97;;;0.30;99.90;;;;;;5108514;28;20047;-72
2023/01/27 12:00:56;;;;;;;7.05;3.90;;;0.30;99.90;;;;;;5108472;28;20047;-74
2023/01/27 12:03:30;;;;;;;;;;;0.30;99.90;;;;;;5088978;28;20060;-73
2023/01/27 12:06:05;;;;;;;4.72;4.03;;;0.30;99.90;;;;;;5080842;28;20438;-73
2023/01/27 12:08:40;;;;;;;4.30;3.83;;;0.30;99.90;;;;;;5083991;28;20052;-73
2023/01/27 12:11:24;;;;;;;5.35;4.05;;;0.30;99.90;;;;;;5070086;28;20094;-73
2023/01/27 12:13:55;;;;;;;6.72;4.00;;;0.30;99.90;;;;;;5085326;28;20047;-74
2023/01/27 12:16:41;;;;;;;5.38;4.10;;;0.20;99.90;;;;;;5109667;28;20500;-73
2023/01/27 12:19:23;;;;;;;3.90;3.60;;;0.10;99.90;;;;;;5113914;28;20633;-74
2023/01/27 12:21:55;;;;;;;5.35;3.45;;;0.10;99.90;;;;;;5076094;28;20049;-73
2023/01/27 12:24:29;;;;;;;6.05;4.00;;;0.10;99.90;;;;;;5106901;28;20143;-73
2023/01/27 12:26:57;;;;;;;5.18;4.55;;;0.10;99.90;;;;;;5093009;28;20047;-74
2023/01/27 12:29:38;;;;;;;4.95;4.55;;;0.10;99.90;;;;;;5086634;28;20046;-74
2023/01/27 12:32:17;;;;;;;6.03;5.00;;;0.00;99.90;;;;;;5094669;28;20134;-74
2023/01/27 12:34:48;;;;;;;5.85;4.68;;;-0.10;99.90;;;;;;5090190;28;20167;-72
2023/01/27 12:37:23;;;;;;;4.97;4.57;;;0.00;99.90;;;;;;5087844;28;20048;-72
2023/01/27 12:39:55;;;;;;;4.68;3.67;;;0.00;99.90;;;;;;5085759;28;20048;-73
2023/01/27 12:42:43;;;;;;;6.28;3.97;;;0.10;99.90;;;;;;5088332;28;20040;-74
2023/01/27 12:45:26;;;;;;;10.82;4.72;;;0.10;99.90;;;;;;5084672;28;20048;-72
2023/01/27 12:48:19;;;;;;;4.47;3.00;;;0.20;99.90;;;;;;5091099;28;20051;-74
2023/01/27 12:51:05;;;;;;;9.52;3.65;;;0.20;99.90;;;;;;5088900;28;20754;-73
2023/01/27 12:53:36;;;;;;;5.05;3.63;;;0.30;99.90;;;;;;5094847;28;20480;-73
2023/01/27 12:56:12;;;;;;;3.58;3.28;;;0.20;99.90;;;;;;5090590;28;20121;-78
2023/01/27 12:58:42;;;;;;;6.72;3.58;;;0.20;99.90;;;;;;5085642;28;20051;-78
2023/01/27 13:01:24;;;;;;;6.25;3.13;;;0.20;99.90;;;;;;5087452;28;20044;-73
2023/01/27 13:03:58;;;;;;;5.77;3.67;;;0.20;99.90;;;;;;5090890;28;20048;-71
2023/01/27 13:06:38;;;;;;;6.95;3.30;;;0.20;99.90;;;;;;5091212;28;20348;-71
2023/01/27 13:09:06;;;;;;;5.43;3.72;;;0.20;99.90;;;;;;5085416;28;20512;-74
2023/01/27 13:11:38;;;;;;;5.47;3.72;;;0.20;99.90;;;;;;5096780;28;20055;-73
2023/01/27 13:14:13;;;;;;;3.65;2.60;;;0.10;99.90;;;;;;5084882;28;20642;-72
2023/01/27 13:16:41;;;;;;;4.38;3.22;;;0.00;99.90;;;;;;5082583;28;20052;-74
2023/01/27 13:19:18;;;;;;;6.28;3.42;;;0.00;99.90;;;;;;5082782;28;20044;-73
2023/01/27 13:21:50;;;;;;;3.40;3.15;;;0.00;99.90;;;;;;5084919;28;20052;-72
2023/01/27 13:24:27;;;;;;;3.63;3.22;;;0.10;99.90;;;;;;5093742;28;20058;-73
2023/01/27 13:26:55;;;;;;;2.88;2.67;;;0.00;99.90;;;;;;5096197;28;20048;-76
2023/01/27 13:29:29;;;;;;;4.57;2.45;;;-0.10;99.90;;;;;;5071729;28;20040;-75
2023/01/27 13:32:04;;;;;;;4.50;2.53;;;-0.10;99.90;;;;;;5093668;28;20138;-74
2023/01/27 13:34:41;;;;;;;2.85;1.95;;;-0.20;99.90;;;;;;5084082;28;20415;-74
2023/01/27 13:37:16;;;;;;;1.67;1.58;;;-0.30;99.90;;;;;;5081256;28;20056;-75
2023/01/27 13:39:56;;;;;;;2.30;1.80;;;-0.50;99.90;;;;;;5091818;28;20055;-74
2023/01/27 13:42:30;;;;;;;2.95;2.08;;;-0.40;99.90;;;;;;5083045;28;20048;-74
2023/01/27 13:45:03;;;;;;;1.90;1.75;;;-0.40;99.90;;;;;;5090028;28;20048;-80
2023/01/27 13:47:47;;;;;;;1.95;1.85;;;-0.40;99.90;;;;;;5106714;28;20158;-80